sensor_id;sensor_type;location;lat;lon;timestamp;P1;durP1;ratioP1;P2;durP2;ratioP2
616;SDS011;295;51.628;7.520;2022-08-21T00:02:46;7.70;;;5.50;;
616;SDS011;295;51.628;7.520;2022-08-21T00:05:36;14.07;;;6.20;;
616;SDS011;295;51.628;7.520;2022-08-21T00:08:26;9.63;;;5.03;;
616;SDS011;295;51.628;7.520;2022-08-21T00:11:16;7.80;;;5.00;;
616;SDS011;295;51.628;7.520;2022-08-21T00:14:06;8.13;;;5.33;;
616;SDS011;295;51.628;7.520;2022-08-21T00:16:55;5.93;;;4.50;;
616;SDS011;295;51.628;7.520;2022-08-21T00:19:46;8.23;;;5.17;;
616;SDS011;295;51.628;7.520;2022-08-21T00:22:35;5.67;;;5.10;;
616;SDS011;295;51.628;7.520;2022-08-21T00:25:24;8.40;;;6.00;;
616;SDS011;295;51.628;7.520;2022-08-21T00:28:15;11.33;;;6.17;;
616;SDS011;295;51.628;7.520;2022-08-21T00:31:04;10.57;;;5.70;;
616;SDS011;295;51.628;7.520;2022-08-21T00:33:53;5.97;;;5.43;;
616;SDS011;295;51.628;7.520;2022-08-21T00:36:47;7.53;;;4.70;;
616;SDS011;295;51.628;7.520;2022-08-21T00:39:36;4.70;;;4.30;;
616;SDS011;295;51.628;7.520;2022-08-21T00:42:25;5.57;;;5.00;;
616;SDS011;295;51.628;7.520;2022-08-21T00:45:15;5.50;;;4.97;;
616;SDS011;295;51.628;7.520;2022-08-21T00:48:05;7.00;;;5.50;;
616;SDS011;295;51.628;7.520;2022-08-21T00:50:55;5.40;;;4.83;;
616;SDS011;295;51.628;7.520;2022-08-21T00:53:45;9.43;;;5.83;;
616;SDS011;295;51.628;7.520;2022-08-21T00:56:39;5.83;;;4.20;;
616;SDS011;295;51.628;7.520;2022-08-21T00:59:29;5.90;;;5.30;;
616;SDS011;295;51.628;7.520;2022-08-21T01:02:22;6.97;;;5.67;;
616;SDS011;295;51.628;7.520;2022-08-21T01:05:11;8.90;;;5.10;;
616;SDS011;295;51.628;7.520;2022-08-21T01:08:02;7.70;;;5.73;;
616;SDS011;295;51.628;7.520;2022-08-21T01:10:51;7.83;;;5.27;;
616;SDS011;295;51.628;7.520;2022-08-21T01:13:41;9.10;;;5.83;;
616;SDS011;295;51.628;7.520;2022-08-21T01:16:33;10.07;;;5.53;;
616;SDS011;295;51.628;7.520;2022-08-21T01:19:23;7.90;;;5.70;;
616;SDS011;295;51.628;7.520;2022-08-21T01:22:13;8.60;;;5.10;;
616;SDS011;295;51.628;7.520;2022-08-21T01:25:03;7.17;;;4.80;;
616;SDS011;295;51.628;7.520;2022-08-21T01:27:52;7.77;;;5.10;;
616;SDS011;295;51.628;7.520;2022-08-21T01:30:41;5.97;;;5.37;;
616;SDS011;295;51.628;7.520;2022-08-21T01:33:31;12.33;;;5.43;;
616;SDS011;295;51.628;7.520;2022-08-21T01:36:20;5.90;;;3.47;;
616;SDS011;295;51.628;7.520;2022-08-21T01:39:10;5.13;;;4.00;;
616;SDS011;295;51.628;7.520;2022-08-21T01:42:00;6.67;;;4.87;;
616;SDS011;295;51.628;7.520;2022-08-21T01:44:49;6.27;;;4.90;;
616;SDS011;295;51.628;7.520;2022-08-21T01:47:42;5.80;;;4.50;;
616;SDS011;295;51.628;7.520;2022-08-21T01:50:31;10.57;;;5.20;;
616;SDS011;295;51.628;7.520;2022-08-21T01:53:20;7.50;;;4.60;;
616;SDS011;295;51.628;7.520;2022-08-21T01:56:20;5.63;;;4.47;;
616;SDS011;295;51.628;7.520;2022-08-21T01:59:09;8.37;;;5.53;;
616;SDS011;295;51.628;7.520;2022-08-21T02:01:58;5.97;;;5.47;;
616;SDS011;295;51.628;7.520;2022-08-21T02:04:47;6.03;;;4.53;;
616;SDS011;295;51.628;7.520;2022-08-21T02:07:37;8.77;;;5.30;;
616;SDS011;295;51.628;7.520;2022-08-21T02:10:27;5.23;;;3.90;;
616;SDS011;295;51.628;7.520;2022-08-21T02:13:20;8.50;;;5.40;;
616;SDS011;295;51.628;7.520;2022-08-21T02:16:09;5.50;;;5.00;;
616;SDS011;295;51.628;7.520;2022-08-21T02:19:05;7.37;;;5.47;;
616;SDS011;295;51.628;7.520;2022-08-21T02:21:54;8.83;;;5.70;;
616;SDS011;295;51.628;7.520;2022-08-21T02:24:43;7.53;;;6.80;;
616;SDS011;295;51.628;7.520;2022-08-21T02:27:41;7.50;;;6.70;;
616;SDS011;295;51.628;7.520;2022-08-21T02:30:33;5.93;;;5.33;;
616;SDS011;295;51.628;7.520;2022-08-21T02:33:24;8.60;;;6.80;;
616;SDS011;295;51.628;7.520;2022-08-21T02:36:14;9.80;;;6.80;;
616;SDS011;295;51.628;7.520;2022-08-21T02:39:03;7.93;;;6.60;;
616;SDS011;295;51.628;7.520;2022-08-21T02:41:52;8.20;;;6.63;;
616;SDS011;295;51.628;7.520;2022-08-21T02:44:40;7.50;;;6.80;;
616;SDS011;295;51.628;7.520;2022-08-21T02:47:31;8.97;;;7.03;;
616;SDS011;295;51.628;7.520;2022-08-21T02:50:20;8.87;;;6.80;;
616;SDS011;295;51.628;7.520;2022-08-21T02:53:13;13.27;;;6.60;;
616;SDS011;295;51.628;7.520;2022-08-21T02:56:04;9.50;;;8.60;;
616;SDS011;295;51.628;7.520;2022-08-21T02:58:53;10.83;;;7.37;;
616;SDS011;295;51.628;7.520;2022-08-21T03:01:42;8.70;;;7.40;;
616;SDS011;295;51.628;7.520;2022-08-21T03:04:32;9.63;;;7.47;;
616;SDS011;295;51.628;7.520;2022-08-21T03:07:21;7.97;;;7.27;;
616;SDS011;295;51.628;7.520;2022-08-21T03:10:13;12.33;;;8.13;;
616;SDS011;295;51.628;7.520;2022-08-21T03:13:02;11.00;;;8.50;;
616;SDS011;295;51.628;7.520;2022-08-21T03:15:51;14.53;;;7.80;;
616;SDS011;295;51.628;7.520;2022-08-21T03:18:40;8.17;;;7.37;;
616;SDS011;295;51.628;7.520;2022-08-21T03:21:30;9.17;;;8.20;;
616;SDS011;295;51.628;7.520;2022-08-21T03:24:20;11.90;;;8.90;;
616;SDS011;295;51.628;7.520;2022-08-21T03:27:08;11.33;;;8.67;;
616;SDS011;295;51.628;7.520;2022-08-21T03:30:00;8.57;;;7.73;;
616;SDS011;295;51.628;7.520;2022-08-21T03:32:49;11.63;;;8.10;;
616;SDS011;295;51.628;7.520;2022-08-21T03:35:38;10.83;;;8.57;;
616;SDS011;295;51.628;7.520;2022-08-21T03:38:31;9.50;;;8.57;;
616;SDS011;295;51.628;7.520;2022-08-21T03:41:20;9.03;;;8.23;;
616;SDS011;295;51.628;7.520;2022-08-21T03:44:09;9.90;;;8.63;;
616;SDS011;295;51.628;7.520;2022-08-21T03:46:58;10.20;;;9.30;;
616;SDS011;295;51.628;7.520;2022-08-21T03:49:48;10.50;;;8.50;;
616;SDS011;295;51.628;7.520;2022-08-21T03:52:37;13.40;;;9.70;;
616;SDS011;295;51.628;7.520;2022-08-21T03:55:27;10.73;;;9.50;;
616;SDS011;295;51.628;7.520;2022-08-21T03:58:18;9.30;;;8.40;;
616;SDS011;295;51.628;7.520;2022-08-21T04:01:07;10.67;;;9.37;;
616;SDS011;295;51.628;7.520;2022-08-21T04:03:56;8.80;;;7.90;;
616;SDS011;295;51.628;7.520;2022-08-21T04:06:45;9.23;;;8.33;;
616;SDS011;295;51.628;7.520;2022-08-21T04:09:34;8.67;;;7.67;;
616;SDS011;295;51.628;7.520;2022-08-21T04:12:24;10.67;;;8.80;;
616;SDS011;295;51.628;7.520;2022-08-21T04:15:13;12.40;;;8.13;;
616;SDS011;295;51.628;7.520;2022-08-21T04:18:02;9.20;;;8.13;;
616;SDS011;295;51.628;7.520;2022-08-21T04:20:52;11.50;;;8.00;;
616;SDS011;295;51.628;7.520;2022-08-21T04:23:42;10.90;;;7.80;;
616;SDS011;295;51.628;7.520;2022-08-21T04:26:31;8.90;;;8.00;;
616;SDS011;295;51.628;7.520;2022-08-21T04:29:22;11.10;;;9.07;;
616;SDS011;295;51.628;7.520;2022-08-21T04:32:11;9.30;;;8.27;;
616;SDS011;295;51.628;7.520;2022-08-21T04:35:00;11.67;;;8.20;;
616;SDS011;295;51.628;7.520;2022-08-21T04:37:50;8.30;;;7.50;;
616;SDS011;295;51.628;7.520;2022-08-21T04:40:39;10.13;;;9.00;;
616;SDS011;295;51.628;7.520;2022-08-21T04:43:28;9.77;;;8.80;;
616;SDS011;295;51.628;7.520;2022-08-21T04:46:18;10.77;;;9.30;;
616;SDS011;295;51.628;7.520;2022-08-21T04:49:07;10.33;;;9.10;;
616;SDS011;295;51.628;7.520;2022-08-21T04:51:56;11.07;;;8.83;;
616;SDS011;295;51.628;7.520;2022-08-21T04:54:45;9.70;;;8.80;;
616;SDS011;295;51.628;7.520;2022-08-21T04:57:40;10.13;;;8.10;;
616;SDS011;295;51.628;7.520;2022-08-21T05:00:35;9.30;;;8.40;;
616;SDS011;295;51.628;7.520;2022-08-21T05:03:25;9.80;;;8.90;;
616;SDS011;295;51.628;7.520;2022-08-21T05:06:14;11.30;;;9.70;;
616;SDS011;295;51.628;7.520;2022-08-21T05:09:04;11.97;;;10.87;;
616;SDS011;295;51.628;7.520;2022-08-21T05:11:53;15.20;;;9.57;;
616;SDS011;295;51.628;7.520;2022-08-21T05:14:42;9.60;;;8.60;;
616;SDS011;295;51.628;7.520;2022-08-21T05:17:31;11.77;;;10.00;;
616;SDS011;295;51.628;7.520;2022-08-21T05:20:21;11.70;;;10.20;;
616;SDS011;295;51.628;7.520;2022-08-21T05:23:11;9.97;;;9.03;;
616;SDS011;295;51.628;7.520;2022-08-21T05:26:00;11.57;;;10.17;;
616;SDS011;295;51.628;7.520;2022-08-21T05:28:51;13.70;;;10.00;;
616;SDS011;295;51.628;7.520;2022-08-21T05:31:43;12.97;;;11.63;;
616;SDS011;295;51.628;7.520;2022-08-21T05:34:32;13.27;;;12.10;;
616;SDS011;295;51.628;7.520;2022-08-21T05:37:24;15.13;;;10.93;;
616;SDS011;295;51.628;7.520;2022-08-21T05:40:13;15.40;;;11.83;;
616;SDS011;295;51.628;7.520;2022-08-21T05:43:09;14.43;;;12.07;;
616;SDS011;295;51.628;7.520;2022-08-21T05:45:57;12.53;;;11.33;;
616;SDS011;295;51.628;7.520;2022-08-21T05:48:46;10.13;;;9.07;;
616;SDS011;295;51.628;7.520;2022-08-21T05:51:35;10.10;;;8.23;;
616;SDS011;295;51.628;7.520;2022-08-21T05:54:25;11.00;;;9.10;;
616;SDS011;295;51.628;7.520;2022-08-21T05:57:14;12.93;;;10.10;;
616;SDS011;295;51.628;7.520;2022-08-21T06:00:06;10.30;;;9.13;;
616;SDS011;295;51.628;7.520;2022-08-21T06:02:56;11.17;;;8.80;;
616;SDS011;295;51.628;7.520;2022-08-21T06:05:45;10.03;;;8.40;;
616;SDS011;295;51.628;7.520;2022-08-21T06:08:34;9.90;;;8.93;;
616;SDS011;295;51.628;7.520;2022-08-21T06:11:24;13.63;;;10.47;;
616;SDS011;295;51.628;7.520;2022-08-21T06:14:15;10.13;;;7.77;;
616;SDS011;295;51.628;7.520;2022-08-21T06:17:04;9.33;;;8.47;;
616;SDS011;295;51.628;7.520;2022-08-21T06:19:53;10.33;;;8.77;;
616;SDS011;295;51.628;7.520;2022-08-21T06:22:42;13.00;;;9.30;;
616;SDS011;295;51.628;7.520;2022-08-21T06:25:31;10.90;;;9.10;;
616;SDS011;295;51.628;7.520;2022-08-21T06:28:22;11.93;;;9.13;;
616;SDS011;295;51.628;7.520;2022-08-21T06:31:12;14.03;;;10.17;;
616;SDS011;295;51.628;7.520;2022-08-21T06:34:01;9.57;;;8.07;;
616;SDS011;295;51.628;7.520;2022-08-21T06:36:50;11.93;;;7.47;;
616;SDS011;295;51.628;7.520;2022-08-21T06:39:42;8.93;;;6.50;;
616;SDS011;295;51.628;7.520;2022-08-21T06:42:31;8.53;;;7.63;;
616;SDS011;295;51.628;7.520;2022-08-21T06:45:22;12.80;;;9.83;;
616;SDS011;295;51.628;7.520;2022-08-21T06:48:14;12.83;;;9.60;;
616;SDS011;295;51.628;7.520;2022-08-21T06:51:05;10.80;;;8.77;;
616;SDS011;295;51.628;7.520;2022-08-21T06:53:54;10.23;;;8.77;;
616;SDS011;295;51.628;7.520;2022-08-21T06:56:45;11.80;;;9.60;;
616;SDS011;295;51.628;7.520;2022-08-21T06:59:34;10.87;;;8.70;;
616;SDS011;295;51.628;7.520;2022-08-21T07:02:24;8.53;;;7.67;;
616;SDS011;295;51.628;7.520;2022-08-21T07:05:13;10.87;;;8.70;;
616;SDS011;295;51.628;7.520;2022-08-21T07:08:04;15.43;;;8.27;;
616;SDS011;295;51.628;7.520;2022-08-21T07:10:53;12.47;;;8.17;;
616;SDS011;295;51.628;7.520;2022-08-21T07:13:43;9.90;;;7.23;;
616;SDS011;295;51.628;7.520;2022-08-21T07:16:32;9.17;;;7.00;;
616;SDS011;295;51.628;7.520;2022-08-21T07:19:22;8.57;;;6.97;;
616;SDS011;295;51.628;7.520;2022-08-21T07:22:18;10.60;;;6.67;;
616;SDS011;295;51.628;7.520;2022-08-21T07:25:09;10.70;;;6.23;;
616;SDS011;295;51.628;7.520;2022-08-21T07:27:59;7.10;;;6.28;;
616;SDS011;295;51.628;7.520;2022-08-21T07:30:49;14.00;;;6.78;;
616;SDS011;295;51.628;7.520;2022-08-21T07:33:43;8.98;;;7.43;;
616;SDS011;295;51.628;7.520;2022-08-21T07:36:33;11.05;;;6.53;;
616;SDS011;295;51.628;7.520;2022-08-21T07:39:22;8.50;;;6.97;;
616;SDS011;295;51.628;7.520;2022-08-21T07:42:11;9.77;;;7.30;;
616;SDS011;295;51.628;7.520;2022-08-21T07:45:00;9.52;;;6.32;;
616;SDS011;295;51.628;7.520;2022-08-21T07:47:49;10.13;;;6.93;;
616;SDS011;295;51.628;7.520;2022-08-21T07:50:43;10.38;;;6.93;;
616;SDS011;295;51.628;7.520;2022-08-21T07:53:35;11.00;;;6.72;;
616;SDS011;295;51.628;7.520;2022-08-21T07:56:24;13.68;;;6.78;;
616;SDS011;295;51.628;7.520;2022-08-21T07:59:13;9.93;;;6.85;;
616;SDS011;295;51.628;7.520;2022-08-21T08:02:03;6.80;;;6.15;;
616;SDS011;295;51.628;7.520;2022-08-21T08:04:52;13.35;;;6.80;;
616;SDS011;295;51.628;7.520;2022-08-21T08:07:41;7.63;;;6.80;;
616;SDS011;295;51.628;7.520;2022-08-21T08:10:31;11.32;;;7.45;;
616;SDS011;295;51.628;7.520;2022-08-21T08:13:20;8.10;;;5.78;;
616;SDS011;295;51.628;7.520;2022-08-21T08:16:09;11.65;;;6.95;;
616;SDS011;295;51.628;7.520;2022-08-21T08:18:58;14.00;;;7.45;;
616;SDS011;295;51.628;7.520;2022-08-21T08:21:47;8.95;;;6.43;;
616;SDS011;295;51.628;7.520;2022-08-21T08:24:37;7.90;;;7.20;;
616;SDS011;295;51.628;7.520;2022-08-21T08:27:28;9.63;;;6.38;;
616;SDS011;295;51.628;7.520;2022-08-21T08:30:17;9.52;;;6.88;;
616;SDS011;295;51.628;7.520;2022-08-21T08:33:07;7.82;;;7.03;;
616;SDS011;295;51.628;7.520;2022-08-21T08:35:56;10.13;;;6.80;;
616;SDS011;295;51.628;7.520;2022-08-21T08:38:52;8.10;;;6.75;;
616;SDS011;295;51.628;7.520;2022-08-21T08:41:41;8.00;;;5.93;;
616;SDS011;295;51.628;7.520;2022-08-21T08:44:34;6.82;;;4.47;;
616;SDS011;295;51.628;7.520;2022-08-21T08:47:22;5.95;;;4.50;;
616;SDS011;295;51.628;7.520;2022-08-21T08:50:15;7.03;;;4.43;;
616;SDS011;295;51.628;7.520;2022-08-21T08:53:06;8.43;;;4.00;;
616;SDS011;295;51.628;7.520;2022-08-21T08:55:55;15.60;;;6.05;;
616;SDS011;295;51.628;7.520;2022-08-21T08:58:46;8.55;;;5.03;;
616;SDS011;295;51.628;7.520;2022-08-21T09:01:36;8.02;;;3.75;;
616;SDS011;295;51.628;7.520;2022-08-21T09:04:26;5.93;;;4.25;;
616;SDS011;295;51.628;7.520;2022-08-21T09:07:17;6.05;;;3.13;;
616;SDS011;295;51.628;7.520;2022-08-21T09:10:12;7.50;;;3.67;;
616;SDS011;295;51.628;7.520;2022-08-21T09:13:18;6.55;;;3.78;;
616;SDS011;295;51.628;7.520;2022-08-21T09:16:09;7.85;;;4.00;;
616;SDS011;295;51.628;7.520;2022-08-21T09:19:06;6.45;;;3.35;;
616;SDS011;295;51.628;7.520;2022-08-21T09:21:58;5.25;;;3.83;;
616;SDS011;295;51.628;7.520;2022-08-21T09:24:52;6.85;;;3.50;;
616;SDS011;295;51.628;7.520;2022-08-21T09:27:43;6.60;;;3.10;;
616;SDS011;295;51.628;7.520;2022-08-21T09:30:32;6.55;;;2.92;;
616;SDS011;295;51.628;7.520;2022-08-21T09:33:21;9.77;;;2.83;;
616;SDS011;295;51.628;7.520;2022-08-21T09:36:12;5.50;;;2.72;;
616;SDS011;295;51.628;7.520;2022-08-21T09:39:12;5.70;;;2.58;;
616;SDS011;295;51.628;7.520;2022-08-21T09:42:03;7.95;;;2.90;;
616;SDS011;295;51.628;7.520;2022-08-21T09:45:11;4.82;;;2.47;;
616;SDS011;295;51.628;7.520;2022-08-21T09:48:11;5.50;;;2.92;;
616;SDS011;295;51.628;7.520;2022-08-21T09:51:05;5.90;;;2.78;;
616;SDS011;295;51.628;7.520;2022-08-21T09:53:56;7.00;;;2.75;;
616;SDS011;295;51.628;7.520;2022-08-21T09:56:53;6.20;;;2.97;;
616;SDS011;295;51.628;7.520;2022-08-21T10:00:07;6.43;;;2.38;;
616;SDS011;295;51.628;7.520;2022-08-21T10:03:14;6.82;;;2.17;;
616;SDS011;295;51.628;7.520;2022-08-21T10:06:04;5.45;;;2.38;;
616;SDS011;295;51.628;7.520;2022-08-21T10:09:04;4.47;;;2.22;;
616;SDS011;295;51.628;7.520;2022-08-21T10:11:56;7.22;;;3.05;;
616;SDS011;295;51.628;7.520;2022-08-21T10:14:49;5.03;;;2.88;;
616;SDS011;295;51.628;7.520;2022-08-21T10:17:42;5.13;;;2.10;;
616;SDS011;295;51.628;7.520;2022-08-21T10:20:35;2.80;;;1.80;;
616;SDS011;295;51.628;7.520;2022-08-21T10:23:29;4.75;;;2.10;;
616;SDS011;295;51.628;7.520;2022-08-21T10:26:30;8.55;;;3.42;;
616;SDS011;295;51.628;7.520;2022-08-21T10:29:28;4.25;;;2.22;;
616;SDS011;295;51.628;7.520;2022-08-21T10:32:27;3.60;;;2.15;;
616;SDS011;295;51.628;7.520;2022-08-21T10:35:20;4.05;;;2.05;;
616;SDS011;295;51.628;7.520;2022-08-21T10:38:24;3.30;;;2.28;;
616;SDS011;295;51.628;7.520;2022-08-21T10:41:41;3.97;;;2.47;;
616;SDS011;295;51.628;7.520;2022-08-21T10:44:33;6.53;;;2.65;;
616;SDS011;295;51.628;7.520;2022-08-21T10:47:27;5.18;;;2.58;;
616;SDS011;295;51.628;7.520;2022-08-21T10:50:19;4.20;;;1.63;;
616;SDS011;295;51.628;7.520;2022-08-21T10:56:16;2.35;;;1.63;;
616;SDS011;295;51.628;7.520;2022-08-21T10:59:20;5.97;;;2.05;;
616;SDS011;295;51.628;7.520;2022-08-21T11:02:13;7.03;;;2.30;;
616;SDS011;295;51.628;7.520;2022-08-21T11:05:05;4.18;;;2.45;;
616;SDS011;295;51.628;7.520;2022-08-21T11:07:57;3.70;;;2.03;;
616;SDS011;295;51.628;7.520;2022-08-21T11:10:52;4.78;;;2.72;;
616;SDS011;295;51.628;7.520;2022-08-21T11:13:47;3.30;;;2.20;;
616;SDS011;295;51.628;7.520;2022-08-21T11:16:39;2.67;;;1.77;;
616;SDS011;295;51.628;7.520;2022-08-21T11:19:30;3.60;;;1.98;;
616;SDS011;295;51.628;7.520;2022-08-21T11:22:23;3.25;;;1.90;;
616;SDS011;295;51.628;7.520;2022-08-21T11:25:17;5.55;;;2.08;;
616;SDS011;295;51.628;7.520;2022-08-21T11:28:09;4.22;;;1.52;;
616;SDS011;295;51.628;7.520;2022-08-21T11:31:03;2.88;;;1.88;;
616;SDS011;295;51.628;7.520;2022-08-21T11:34:00;3.58;;;1.88;;
616;SDS011;295;51.628;7.520;2022-08-21T11:36:54;2.30;;;1.48;;
616;SDS011;295;51.628;7.520;2022-08-21T11:39:48;2.97;;;1.75;;
616;SDS011;295;51.628;7.520;2022-08-21T11:42:42;3.00;;;1.75;;
616;SDS011;295;51.628;7.520;2022-08-21T11:45:37;4.60;;;1.90;;
616;SDS011;295;51.628;7.520;2022-08-21T11:48:33;1.85;;;1.20;;
616;SDS011;295;51.628;7.520;2022-08-21T11:51:27;2.10;;;1.60;;
616;SDS011;295;51.628;7.520;2022-08-21T11:54:20;3.42;;;1.77;;
616;SDS011;295;51.628;7.520;2022-08-21T11:57:14;3.15;;;1.40;;
616;SDS011;295;51.628;7.520;2022-08-21T12:00:05;2.38;;;1.45;;
616;SDS011;295;51.628;7.520;2022-08-21T12:02:56;2.30;;;1.50;;
616;SDS011;295;51.628;7.520;2022-08-21T12:05:51;3.75;;;1.60;;
616;SDS011;295;51.628;7.520;2022-08-21T12:08:43;1.90;;;1.45;;
616;SDS011;295;51.628;7.520;2022-08-21T12:11:43;2.05;;;1.50;;
616;SDS011;295;51.628;7.520;2022-08-21T12:14:37;1.85;;;1.17;;
616;SDS011;295;51.628;7.520;2022-08-21T12:17:35;2.75;;;1.35;;
616;SDS011;295;51.628;7.520;2022-08-21T12:20:35;1.85;;;1.50;;
616;SDS011;295;51.628;7.520;2022-08-21T12:23:45;1.88;;;1.60;;
616;SDS011;295;51.628;7.520;2022-08-21T12:26:35;3.58;;;2.15;;
616;SDS011;295;51.628;7.520;2022-08-21T12:29:25;2.70;;;1.52;;
616;SDS011;295;51.628;7.520;2022-08-21T12:32:24;1.83;;;1.25;;
616;SDS011;295;51.628;7.520;2022-08-21T12:35:14;2.67;;;1.40;;
616;SDS011;295;51.628;7.520;2022-08-21T12:38:12;2.95;;;1.63;;
616;SDS011;295;51.628;7.520;2022-08-21T12:41:06;2.85;;;2.20;;
616;SDS011;295;51.628;7.520;2022-08-21T12:44:01;2.97;;;1.60;;
616;SDS011;295;51.628;7.520;2022-08-21T12:46:54;3.20;;;1.60;;
616;SDS011;295;51.628;7.520;2022-08-21T12:49:52;2.40;;;1.35;;
616;SDS011;295;51.628;7.520;2022-08-21T12:52:43;1.90;;;1.67;;
616;SDS011;295;51.628;7.520;2022-08-21T12:55:33;2.15;;;1.48;;
616;SDS011;295;51.628;7.520;2022-08-21T12:58:26;2.08;;;1.20;;
616;SDS011;295;51.628;7.520;2022-08-21T13:01:17;1.85;;;1.70;;
616;SDS011;295;51.628;7.520;2022-08-21T13:04:09;3.33;;;1.60;;
616;SDS011;295;51.628;7.520;2022-08-21T13:06:59;2.40;;;1.50;;
616;SDS011;295;51.628;7.520;2022-08-21T13:09:49;3.92;;;1.75;;
616;SDS011;295;51.628;7.520;2022-08-21T13:12:40;1.95;;;1.50;;
616;SDS011;295;51.628;7.520;2022-08-21T13:15:31;3.03;;;1.70;;
616;SDS011;295;51.628;7.520;2022-08-21T13:18:21;1.90;;;1.50;;
616;SDS011;295;51.628;7.520;2022-08-21T13:21:11;2.47;;;1.60;;
616;SDS011;295;51.628;7.520;2022-08-21T13:24:08;1.35;;;1.15;;
616;SDS011;295;51.628;7.520;2022-08-21T13:27:19;2.60;;;1.40;;
616;SDS011;295;51.628;7.520;2022-08-21T13:30:12;2.38;;;1.60;;
616;SDS011;295;51.628;7.520;2022-08-21T13:33:03;2.80;;;1.40;;
616;SDS011;295;51.628;7.520;2022-08-21T13:36:01;3.35;;;1.30;;
616;SDS011;295;51.628;7.520;2022-08-21T13:38:51;3.13;;;2.13;;
616;SDS011;295;51.628;7.520;2022-08-21T13:41:43;6.20;;;1.90;;
616;SDS011;295;51.628;7.520;2022-08-21T13:44:34;2.78;;;1.50;;
616;SDS011;295;51.628;7.520;2022-08-21T13:47:23;3.63;;;2.10;;
616;SDS011;295;51.628;7.520;2022-08-21T13:50:14;3.53;;;2.05;;
616;SDS011;295;51.628;7.520;2022-08-21T13:53:04;3.00;;;2.17;;
616;SDS011;295;51.628;7.520;2022-08-21T13:55:53;2.03;;;1.52;;
616;SDS011;295;51.628;7.520;2022-08-21T13:58:46;1.80;;;1.58;;
616;SDS011;295;51.628;7.520;2022-08-21T14:01:36;3.03;;;1.50;;
616;SDS011;295;51.628;7.520;2022-08-21T14:04:32;3.67;;;1.33;;
616;SDS011;295;51.628;7.520;2022-08-21T14:07:26;6.13;;;1.73;;
616;SDS011;295;51.628;7.520;2022-08-21T14:10:17;1.73;;;1.35;;
616;SDS011;295;51.628;7.520;2022-08-21T14:13:06;1.88;;;1.48;;
616;SDS011;295;51.628;7.520;2022-08-21T14:15:56;1.45;;;1.23;;
616;SDS011;295;51.628;7.520;2022-08-21T14:18:47;3.22;;;1.70;;
616;SDS011;295;51.628;7.520;2022-08-21T14:21:37;1.70;;;1.58;;
616;SDS011;295;51.628;7.520;2022-08-21T14:24:29;3.00;;;1.50;;
616;SDS011;295;51.628;7.520;2022-08-21T14:27:22;1.60;;;1.50;;
616;SDS011;295;51.628;7.520;2022-08-21T14:30:12;2.65;;;1.48;;
616;SDS011;295;51.628;7.520;2022-08-21T14:33:01;2.88;;;1.60;;
616;SDS011;295;51.628;7.520;2022-08-21T14:35:51;2.08;;;1.48;;
616;SDS011;295;51.628;7.520;2022-08-21T14:38:28;2.25;;;1.40;;
616;SDS011;295;51.628;7.520;2022-08-21T14:41:21;2.33;;;2.13;;
616;SDS011;295;51.628;7.520;2022-08-21T14:44:16;1.73;;;1.30;;
616;SDS011;295;51.628;7.520;2022-08-21T14:47:05;2.78;;;1.60;;
616;SDS011;295;51.628;7.520;2022-08-21T14:49:57;3.63;;;1.88;;
616;SDS011;295;51.628;7.520;2022-08-21T14:52:50;3.55;;;2.50;;
616;SDS011;295;51.628;7.520;2022-08-21T14:55:39;4.13;;;1.52;;
616;SDS011;295;51.628;7.520;2022-08-21T14:58:48;2.15;;;1.90;;
616;SDS011;295;51.628;7.520;2022-08-21T15:01:38;2.05;;;1.33;;
616;SDS011;295;51.628;7.520;2022-08-21T15:04:28;1.40;;;1.00;;
616;SDS011;295;51.628;7.520;2022-08-21T15:07:17;1.40;;;0.80;;
616;SDS011;295;51.628;7.520;2022-08-21T15:10:06;1.15;;;1.00;;
616;SDS011;295;51.628;7.520;2022-08-21T15:12:58;2.03;;;1.30;;
616;SDS011;295;51.628;7.520;2022-08-21T15:15:49;3.13;;;1.35;;
616;SDS011;295;51.628;7.520;2022-08-21T15:18:39;1.48;;;1.25;;
616;SDS011;295;51.628;7.520;2022-08-21T15:21:29;1.65;;;1.10;;
616;SDS011;295;51.628;7.520;2022-08-21T15:24:18;3.13;;;1.27;;
616;SDS011;295;51.628;7.520;2022-08-21T15:27:07;1.52;;;0.95;;
616;SDS011;295;51.628;7.520;2022-08-21T15:29:58;9.07;;;1.38;;
616;SDS011;295;51.628;7.520;2022-08-21T15:32:48;3.38;;;1.38;;
616;SDS011;295;51.628;7.520;2022-08-21T15:35:39;3.88;;;2.13;;
616;SDS011;295;51.628;7.520;2022-08-21T15:38:28;3.13;;;1.38;;
616;SDS011;295;51.628;7.520;2022-08-21T15:41:17;3.13;;;1.80;;
616;SDS011;295;51.628;7.520;2022-08-21T15:44:08;4.13;;;2.10;;
616;SDS011;295;51.628;7.520;2022-08-21T15:46:58;3.10;;;1.40;;
616;SDS011;295;51.628;7.520;2022-08-21T15:49:48;2.10;;;1.45;;
616;SDS011;295;51.628;7.520;2022-08-21T15:52:49;3.20;;;1.50;;
616;SDS011;295;51.628;7.520;2022-08-21T15:55:41;1.67;;;0.98;;
616;SDS011;295;51.628;7.520;2022-08-21T15:58:33;1.95;;;1.20;;
616;SDS011;295;51.628;7.520;2022-08-21T16:01:22;2.13;;;1.33;;
616;SDS011;295;51.628;7.520;2022-08-21T16:04:11;1.50;;;0.90;;
616;SDS011;295;51.628;7.520;2022-08-21T16:07:04;2.60;;;1.13;;
616;SDS011;295;51.628;7.520;2022-08-21T16:09:56;2.70;;;1.45;;
616;SDS011;295;51.628;7.520;2022-08-21T16:12:46;3.10;;;1.40;;
616;SDS011;295;51.628;7.520;2022-08-21T16:15:36;2.33;;;1.25;;
616;SDS011;295;51.628;7.520;2022-08-21T16:18:25;1.83;;;1.23;;
616;SDS011;295;51.628;7.520;2022-08-21T16:21:14;2.03;;;1.23;;
616;SDS011;295;51.628;7.520;2022-08-21T16:24:05;3.00;;;1.40;;
616;SDS011;295;51.628;7.520;2022-08-21T16:26:54;2.55;;;0.95;;
616;SDS011;295;51.628;7.520;2022-08-21T16:29:45;2.85;;;1.00;;
616;SDS011;295;51.628;7.520;2022-08-21T16:32:35;2.75;;;1.70;;
616;SDS011;295;51.628;7.520;2022-08-21T16:35:23;3.92;;;1.30;;
616;SDS011;295;51.628;7.520;2022-08-21T16:38:14;4.00;;;1.63;;
616;SDS011;295;51.628;7.520;2022-08-21T16:41:06;4.38;;;1.38;;
616;SDS011;295;51.628;7.520;2022-08-21T16:43:57;3.20;;;1.50;;
616;SDS011;295;51.628;7.520;2022-08-21T16:46:47;1.33;;;1.20;;
616;SDS011;295;51.628;7.520;2022-08-21T16:49:37;2.93;;;1.53;;
616;SDS011;295;51.628;7.520;2022-08-21T16:52:27;1.77;;;1.30;;
616;SDS011;295;51.628;7.520;2022-08-21T16:55:19;2.47;;;1.50;;
616;SDS011;295;51.628;7.520;2022-08-21T16:58:13;2.63;;;1.53;;
616;SDS011;295;51.628;7.520;2022-08-21T17:01:06;1.83;;;1.23;;
616;SDS011;295;51.628;7.520;2022-08-21T17:03:57;3.03;;;2.47;;
616;SDS011;295;51.628;7.520;2022-08-21T17:06:47;2.67;;;1.03;;
616;SDS011;295;51.628;7.520;2022-08-21T17:09:36;2.80;;;1.37;;
616;SDS011;295;51.628;7.520;2022-08-21T17:12:24;4.30;;;1.30;;
616;SDS011;295;51.628;7.520;2022-08-21T17:15:18;2.03;;;1.20;;
616;SDS011;295;51.628;7.520;2022-08-21T17:18:08;3.67;;;1.40;;
616;SDS011;295;51.628;7.520;2022-08-21T17:20:58;2.77;;;1.80;;
616;SDS011;295;51.628;7.520;2022-08-21T17:23:48;4.17;;;2.13;;
616;SDS011;295;51.628;7.520;2022-08-21T17:26:41;4.30;;;1.80;;
616;SDS011;295;51.628;7.520;2022-08-21T17:29:36;2.70;;;1.93;;
616;SDS011;295;51.628;7.520;2022-08-21T17:32:40;4.10;;;2.10;;
616;SDS011;295;51.628;7.520;2022-08-21T17:35:30;4.37;;;2.83;;
616;SDS011;295;51.628;7.520;2022-08-21T17:38:21;4.97;;;2.23;;
616;SDS011;295;51.628;7.520;2022-08-21T17:41:15;3.10;;;1.80;;
616;SDS011;295;51.628;7.520;2022-08-21T17:44:09;2.70;;;1.43;;
616;SDS011;295;51.628;7.520;2022-08-21T17:47:06;2.47;;;1.40;;
616;SDS011;295;51.628;7.520;2022-08-21T17:49:58;3.33;;;1.80;;
616;SDS011;295;51.628;7.520;2022-08-21T17:52:47;4.40;;;2.17;;
616;SDS011;295;51.628;7.520;2022-08-21T17:55:36;2.27;;;1.97;;
616;SDS011;295;51.628;7.520;2022-08-21T17:58:40;2.83;;;1.70;;
616;SDS011;295;51.628;7.520;2022-08-21T18:01:31;4.63;;;1.97;;
616;SDS011;295;51.628;7.520;2022-08-21T18:04:23;2.60;;;1.87;;
616;SDS011;295;51.628;7.520;2022-08-21T18:07:14;3.10;;;1.33;;
616;SDS011;295;51.628;7.520;2022-08-21T18:10:18;3.30;;;1.20;;
616;SDS011;295;51.628;7.520;2022-08-21T18:13:07;4.03;;;1.57;;
616;SDS011;295;51.628;7.520;2022-08-21T18:15:58;3.20;;;1.50;;
616;SDS011;295;51.628;7.520;2022-08-21T18:18:48;1.30;;;1.20;;
616;SDS011;295;51.628;7.520;2022-08-21T18:21:38;2.00;;;1.43;;